Main page
METAR-TAF:

METAR-TAF

Airports :

Boulder Municipal Airport

Boulder, Colorado, United States

latitude: 40-02-22N, longitude: 105-13-33W, elevation: 5287 ft

Current weather observation

The report was made 12 minutes ago, at 17:55 UTC
Wind 13 mph from the North/Northwest
Temperature 43°F
Humidity 31%
Pressure 29.62 in. Hg
Visibility: 10 miles
Broken clouds at a height of 9000 ft
Overcast at a height of 11000 ft

METAR: KBDU 031755Z AUTO 34011KT 10SM BKN090 OVC110 06/M10 A2962 RMK AO2

Time: 11:07 (18:07 UTC)


TAF: missing

Weather observations and forecasts of more than 4000 airports (METAR and TAF reports).

The available stations are represented by yellow and red dots on the map.

Hover mouse over dot to see the name of the station.

Then click to see weather observations and forecasts.

To change the map : click on the green buttons with a black cross to zoom in, on the green button with a dash to zoom out, or on the green arrows for adjacent maps.


METAR-TAF: